sensor_id;sensor_type;location;lat;lon;timestamp;pressure;altitude;pressure_sealevel;temperature;humidity
16194;BME280;8204;53.582;10.080;2023-02-21T00:01:26;99266.63;;;10.48;100.00
16194;BME280;8204;53.582;10.080;2023-02-21T00:04:10;99265.22;;;10.45;100.00
16194;BME280;8204;53.582;10.080;2023-02-21T00:06:51;99277.88;;;10.42;100.00
16194;BME280;8204;53.582;10.080;2023-02-21T00:09:32;99286.09;;;10.39;100.00
16194;BME280;8204;53.582;10.080;2023-02-21T00:12:14;99275.00;;;10.37;100.00
16194;BME280;8204;53.582;10.080;2023-02-21T00:14:55;99282.88;;;10.37;100.00
16194;BME280;8204;53.582;10.080;2023-02-21T00:17:37;99281.03;;;10.31;100.00
16194;BME280;8204;53.582;10.080;2023-02-21T00:20:20;99279.00;;;10.26;100.00
16194;BME280;8204;53.582;10.080;2023-02-21T00:23:02;99268.13;;;10.29;100.00
16194;BME280;8204;53.582;10.080;2023-02-21T00:25:43;99259.91;;;10.32;100.00
16194;BME280;8204;53.582;10.080;2023-02-21T00:28:25;99275.84;;;10.37;100.00
16194;BME280;8204;53.582;10.080;2023-02-21T00:31:06;99282.88;;;10.37;100.00
16194;BME280;8204;53.582;10.080;2023-02-21T00:33:47;99284.84;;;10.28;100.00
16194;BME280;8204;53.582;10.080;2023-02-21T00:36:31;99297.97;;;10.35;100.00
16194;BME280;8204;53.582;10.080;2023-02-21T00:39:12;99292.88;;;10.27;100.00
16194;BME280;8204;53.582;10.080;2023-02-21T00:41:54;99297.31;;;10.26;100.00
16194;BME280;8204;53.582;10.080;2023-02-21T00:44:35;99292.88;;;10.27;100.00
16194;BME280;8204;53.582;10.080;2023-02-21T00:47:16;99295.13;;;10.30;100.00
16194;BME280;8204;53.582;10.080;2023-02-21T00:49:57;99293.88;;;10.26;100.00
16194;BME280;8204;53.582;10.080;2023-02-21T00:52:41;99304.41;;;10.32;100.00
16194;BME280;8204;53.582;10.080;2023-02-21T00:55:22;99298.50;;;10.24;100.00
16194;BME280;8204;53.582;10.080;2023-02-21T00:58:04;99294.66;;;10.20;100.00
16194;BME280;8204;53.582;10.080;2023-02-21T01:00:45;99296.28;;;10.27;100.00
16194;BME280;8204;53.582;10.080;2023-02-21T01:03:26;99316.34;;;10.14;100.00
16194;BME280;8204;53.582;10.080;2023-02-21T01:06:09;99307.50;;;10.15;100.00
16194;BME280;8204;53.582;10.080;2023-02-21T01:08:53;99303.50;;;10.19;100.00
16194;BME280;8204;53.582;10.080;2023-02-21T01:11:34;99305.31;;;10.18;100.00
16194;BME280;8204;53.582;10.080;2023-02-21T01:14:17;99313.41;;;10.23;100.00
16194;BME280;8204;53.582;10.080;2023-02-21T01:16:59;99316.78;;;10.18;100.00
16194;BME280;8204;53.582;10.080;2023-02-21T01:19:41;99311.53;;;10.18;100.00
16194;BME280;8204;53.582;10.080;2023-02-21T01:22:22;99314.41;;;10.22;100.00
16194;BME280;8204;53.582;10.080;2023-02-21T01:25:07;99324.84;;;10.16;100.00
16194;BME280;8204;53.582;10.080;2023-02-21T01:27:48;99319.19;;;10.19;100.00
16194;BME280;8204;53.582;10.080;2023-02-21T01:30:30;99308.38;;;10.22;100.00
16194;BME280;8204;53.582;10.080;2023-02-21T01:33:12;99309.72;;;10.18;100.00
16194;BME280;8204;53.582;10.080;2023-02-21T01:35:53;99317.56;;;10.18;100.00
16194;BME280;8204;53.582;10.080;2023-02-21T01:38:35;99341.41;;;10.23;100.00
16194;BME280;8204;53.582;10.080;2023-02-21T01:41:19;99327.06;;;10.19;100.00
16194;BME280;8204;53.582;10.080;2023-02-21T01:44:03;99332.41;;;10.11;100.00
16194;BME280;8204;53.582;10.080;2023-02-21T01:46:44;99330.50;;;10.19;100.00
16194;BME280;8204;53.582;10.080;2023-02-21T01:49:26;99333.69;;;10.15;100.00
16194;BME280;8204;53.582;10.080;2023-02-21T01:52:08;99334.78;;;10.27;100.00
16194;BME280;8204;53.582;10.080;2023-02-21T01:54:52;99342.63;;;10.27;100.00
16194;BME280;8204;53.582;10.080;2023-02-21T01:57:38;99351.47;;;10.26;100.00
16194;BME280;8204;53.582;10.080;2023-02-21T02:00:20;99364.56;;;10.26;100.00
16194;BME280;8204;53.582;10.080;2023-02-21T02:03:03;99367.75;;;10.21;100.00
16194;BME280;8204;53.582;10.080;2023-02-21T02:05:48;99369.56;;;10.21;100.00
16194;BME280;8204;53.582;10.080;2023-02-21T02:08:31;99389.28;;;10.17;100.00
16194;BME280;8204;53.582;10.080;2023-02-21T02:11:25;99375.78;;;10.20;100.00
16194;BME280;8204;53.582;10.080;2023-02-21T02:14:28;99368.69;;;10.14;100.00
16194;BME280;8204;53.582;10.080;2023-02-21T02:17:11;99371.88;;;10.10;100.00
16194;BME280;8204;53.582;10.080;2023-02-21T02:20:09;99372.94;;;10.15;100.00
16194;BME280;8204;53.582;10.080;2023-02-21T02:26:12;99365.22;;;10.07;100.00
16194;BME280;8204;53.582;10.080;2023-02-21T02:29:06;99351.75;;;10.10;100.00
16194;BME280;8204;53.582;10.080;2023-02-21T02:31:56;99349.00;;;10.18;100.00
16194;BME280;8204;53.582;10.080;2023-02-21T02:34:42;99350.41;;;10.20;100.00
16194;BME280;8204;53.582;10.080;2023-02-21T02:37:17;99361.63;;;10.15;100.00
16194;BME280;8204;53.582;10.080;2023-02-21T02:39:56;99364.69;;;10.18;100.00
16194;BME280;8204;53.582;10.080;2023-02-21T02:42:37;99369.94;;;10.18;100.00
16194;BME280;8204;53.582;10.080;2023-02-21T02:45:11;99381.16;;;10.12;100.00
16194;BME280;8204;53.582;10.080;2023-02-21T02:47:44;99365.72;;;10.17;100.00
16194;BME280;8204;53.582;10.080;2023-02-21T02:50:18;99368.13;;;10.18;100.00
16194;BME280;8204;53.582;10.080;2023-02-21T02:52:52;99369.56;;;10.21;100.00
16194;BME280;8204;53.582;10.080;2023-02-21T02:55:33;99364.97;;;10.23;100.00
16194;BME280;8204;53.582;10.080;2023-02-21T02:58:04;99368.38;;;10.23;100.00
16194;BME280;8204;53.582;10.080;2023-02-21T03:00:35;99372.81;;;10.23;100.00
16194;BME280;8204;53.582;10.080;2023-02-21T03:03:23;99367.63;;;10.29;100.00
16194;BME280;8204;53.582;10.080;2023-02-21T03:06:10;99382.41;;;10.16;100.00
16194;BME280;8204;53.582;10.080;2023-02-21T03:08:49;99377.63;;;10.19;100.00
16194;BME280;8204;53.582;10.080;2023-02-21T03:11:21;99381.25;;;10.25;100.00
16194;BME280;8204;53.582;10.080;2023-02-21T03:13:55;99387.31;;;10.25;100.00
16194;BME280;8204;53.582;10.080;2023-02-21T03:16:28;99388.50;;;10.23;100.00
16194;BME280;8204;53.582;10.080;2023-02-21T03:19:01;99402.91;;;10.13;100.00
16194;BME280;8204;53.582;10.080;2023-02-21T03:21:39;99411.31;;;10.08;100.00
16194;BME280;8204;53.582;10.080;2023-02-21T03:24:11;99401.09;;;10.13;100.00
16194;BME280;8204;53.582;10.080;2023-02-21T03:26:43;99393.88;;;10.15;100.00
16194;BME280;8204;53.582;10.080;2023-02-21T03:29:14;99403.84;;;10.05;100.00
16194;BME280;8204;53.582;10.080;2023-02-21T03:31:44;99389.13;;;10.04;100.00
16194;BME280;8204;53.582;10.080;2023-02-21T03:34:15;99392.78;;;10.03;100.00
16194;BME280;8204;53.582;10.080;2023-02-21T03:36:47;99395.56;;;10.02;100.00
16194;BME280;8204;53.582;10.080;2023-02-21T03:39:17;99389.41;;;10.09;100.00
16194;BME280;8204;53.582;10.080;2023-02-21T03:41:45;99385.16;;;10.08;100.00
16194;BME280;8204;53.582;10.080;2023-02-21T03:44:14;99401.81;;;10.01;100.00
16194;BME280;8204;53.582;10.080;2023-02-21T03:46:43;99405.41;;;10.00;100.00
16194;BME280;8204;53.582;10.080;2023-02-21T03:49:11;99402.06;;;10.06;100.00
16194;BME280;8204;53.582;10.080;2023-02-21T03:51:40;99408.50;;;10.10;100.00
16194;BME280;8204;53.582;10.080;2023-02-21T03:54:12;99431.28;;;10.09;100.00
16194;BME280;8204;53.582;10.080;2023-02-21T03:56:40;99429.50;;;9.95;100.00
16194;BME280;8204;53.582;10.080;2023-02-21T03:59:09;99431.41;;;9.87;100.00
16194;BME280;8204;53.582;10.080;2023-02-21T04:01:38;99435.03;;;9.86;100.00
16194;BME280;8204;53.582;10.080;2023-02-21T04:04:07;99430.84;;;9.91;100.00
16194;BME280;8204;53.582;10.080;2023-02-21T04:06:36;99421.63;;;9.95;100.00
16194;BME280;8204;53.582;10.080;2023-02-21T04:09:04;99422.91;;;9.99;100.00
16194;BME280;8204;53.582;10.080;2023-02-21T04:11:36;99443.91;;;9.91;100.00
16194;BME280;8204;53.582;10.080;2023-02-21T04:14:05;99435.72;;;9.94;100.00
16194;BME280;8204;53.582;10.080;2023-02-21T04:16:35;99430.16;;;9.97;100.00
16194;BME280;8204;53.582;10.080;2023-02-21T04:19:04;99441.50;;;9.90;100.00
16194;BME280;8204;53.582;10.080;2023-02-21T04:21:33;99447.47;;;9.84;100.00
16194;BME280;8204;53.582;10.080;2023-02-21T04:24:02;99445.06;;;9.82;100.00
16194;BME280;8204;53.582;10.080;2023-02-21T04:26:30;99438.09;;;9.89;100.00
16194;BME280;8204;53.582;10.080;2023-02-21T04:29:02;99440.63;;;9.97;100.00
16194;BME280;8204;53.582;10.080;2023-02-21T04:31:31;99441.69;;;9.88;100.00
16194;BME280;8204;53.582;10.080;2023-02-21T04:34:00;99445.69;;;9.84;100.00
16194;BME280;8204;53.582;10.080;2023-02-21T04:36:29;99463.38;;;9.82;100.00
16194;BME280;8204;53.582;10.080;2023-02-21T04:38:58;99459.22;;;9.73;100.00
16194;BME280;8204;53.582;10.080;2023-02-21T04:41:27;99457.97;;;9.69;100.00
16194;BME280;8204;53.582;10.080;2023-02-21T04:43:56;99446.63;;;9.62;100.00
16194;BME280;8204;53.582;10.080;2023-02-21T04:46:27;99447.38;;;9.56;100.00
16194;BME280;8204;53.582;10.080;2023-02-21T04:48:56;99454.84;;;9.59;100.00
16194;BME280;8204;53.582;10.080;2023-02-21T04:51:26;99460.25;;;9.58;100.00
16194;BME280;8204;53.582;10.080;2023-02-21T04:53:55;99458.03;;;9.55;100.00
16194;BME280;8204;53.582;10.080;2023-02-21T04:56:25;99479.47;;;9.50;100.00
16194;BME280;8204;53.582;10.080;2023-02-21T04:58:55;99520.16;;;9.39;100.00
16194;BME280;8204;53.582;10.080;2023-02-21T05:01:29;99523.75;;;9.38;100.00
16194;BME280;8204;53.582;10.080;2023-02-21T05:03:58;99555.00;;;9.31;100.00
16194;BME280;8204;53.582;10.080;2023-02-21T05:06:30;99561.34;;;9.22;100.00
16194;BME280;8204;53.582;10.080;2023-02-21T05:08:59;99565.84;;;9.28;100.00
16194;BME280;8204;53.582;10.080;2023-02-21T05:11:31;99580.44;;;9.23;100.00
16194;BME280;8204;53.582;10.080;2023-02-21T05:14:01;99599.63;;;9.15;100.00
16194;BME280;8204;53.582;10.080;2023-02-21T05:16:33;99615.81;;;9.11;100.00
16194;BME280;8204;53.582;10.080;2023-02-21T05:19:01;99625.28;;;9.12;100.00
16194;BME280;8204;53.582;10.080;2023-02-21T05:21:34;99623.66;;;9.11;100.00
16194;BME280;8204;53.582;10.080;2023-02-21T05:24:04;99617.09;;;9.15;100.00
16194;BME280;8204;53.582;10.080;2023-02-21T05:26:34;99623.28;;;9.14;100.00
16194;BME280;8204;53.582;10.080;2023-02-21T05:29:04;99616.09;;;9.16;100.00
16194;BME280;8204;53.582;10.080;2023-02-21T05:31:35;99612.13;;;9.20;100.00
16194;BME280;8204;53.582;10.080;2023-02-21T05:34:04;99624.59;;;9.18;100.00
16194;BME280;8204;53.582;10.080;2023-02-21T05:36:33;99631.44;;;9.19;100.00
16194;BME280;8204;53.582;10.080;2023-02-21T05:39:03;99628.88;;;9.11;100.00
16194;BME280;8204;53.582;10.080;2023-02-21T05:41:32;99650.50;;;9.05;100.00
16194;BME280;8204;53.582;10.080;2023-02-21T05:44:02;99640.31;;;9.10;100.00
16194;BME280;8204;53.582;10.080;2023-02-21T05:46:32;99660.25;;;9.11;100.00
16194;BME280;8204;53.582;10.080;2023-02-21T05:49:04;99658.63;;;9.10;100.00
16194;BME280;8204;53.582;10.080;2023-02-21T05:51:34;99655.81;;;9.11;100.00
16194;BME280;8204;53.582;10.080;2023-02-21T05:54:05;99661.97;;;9.18;100.00
16194;BME280;8204;53.582;10.080;2023-02-21T05:56:37;99664.13;;;9.15;100.00
16194;BME280;8204;53.582;10.080;2023-02-21T05:59:06;99660.19;;;9.19;100.00
16194;BME280;8204;53.582;10.080;2023-02-21T06:01:35;99665.03;;;9.22;100.00
16194;BME280;8204;53.582;10.080;2023-02-21T06:04:07;99692.88;;;9.15;100.00
16194;BME280;8204;53.582;10.080;2023-02-21T06:06:36;99703.31;;;9.15;100.00
16194;BME280;8204;53.582;10.080;2023-02-21T06:09:06;99713.13;;;9.13;100.00
16194;BME280;8204;53.582;10.080;2023-02-21T06:11:36;99732.44;;;9.12;100.00
16194;BME280;8204;53.582;10.080;2023-02-21T06:14:08;99737.47;;;9.13;100.00
16194;BME280;8204;53.582;10.080;2023-02-21T06:16:40;99767.31;;;8.96;100.00
16194;BME280;8204;53.582;10.080;2023-02-21T06:19:12;99769.84;;;9.04;100.00
16194;BME280;8204;53.582;10.080;2023-02-21T06:21:42;99775.09;;;9.04;100.00
16194;BME280;8204;53.582;10.080;2023-02-21T06:24:11;99777.53;;;9.06;100.00
16194;BME280;8204;53.582;10.080;2023-02-21T06:26:40;99792.91;;;9.01;100.00
16194;BME280;8204;53.582;10.080;2023-02-21T06:29:10;99797.97;;;9.02;100.00
16194;BME280;8204;53.582;10.080;2023-02-21T06:31:39;99802.38;;;9.02;100.00
16194;BME280;8204;53.582;10.080;2023-02-21T06:34:10;99809.88;;;9.05;100.00
16194;BME280;8204;53.582;10.080;2023-02-21T06:36:39;99819.34;;;9.06;100.00
16194;BME280;8204;53.582;10.080;2023-02-21T06:39:09;99820.94;;;9.07;100.00
16194;BME280;8204;53.582;10.080;2023-02-21T06:41:38;99817.50;;;9.14;100.00
16194;BME280;8204;53.582;10.080;2023-02-21T06:44:07;99827.97;;;9.14;100.00
16194;BME280;8204;53.582;10.080;2023-02-21T06:46:36;99864.41;;;9.08;100.00
16194;BME280;8204;53.582;10.080;2023-02-21T06:49:05;99891.72;;;8.97;100.00
16194;BME280;8204;53.582;10.080;2023-02-21T06:51:38;99880.44;;;9.05;100.00
16194;BME280;8204;53.582;10.080;2023-02-21T06:54:08;99899.06;;;9.02;100.00
16194;BME280;8204;53.582;10.080;2023-02-21T06:56:37;99895.13;;;9.06;100.00
16194;BME280;8204;53.582;10.080;2023-02-21T06:59:06;99922.72;;;9.08;100.00
16194;BME280;8204;53.582;10.080;2023-02-21T07:01:35;99922.53;;;9.10;100.00
16194;BME280;8204;53.582;10.080;2023-02-21T07:04:04;99918.09;;;9.18;100.00
16194;BME280;8204;53.582;10.080;2023-02-21T07:06:32;99939.84;;;9.19;100.00
16194;BME280;8204;53.582;10.080;2023-02-21T07:09:04;99936.06;;;9.21;100.00
16194;BME280;8204;53.582;10.080;2023-02-21T07:11:33;99960.22;;;9.23;100.00
16194;BME280;8204;53.582;10.080;2023-02-21T07:14:05;99988.47;;;9.20;100.00
16194;BME280;8204;53.582;10.080;2023-02-21T07:16:34;100009.56;;;9.26;100.00
16194;BME280;8204;53.582;10.080;2023-02-21T07:19:03;99993.22;;;9.24;100.00
16194;BME280;8204;53.582;10.080;2023-02-21T07:21:32;99988.16;;;9.31;100.00
16194;BME280;8204;53.582;10.080;2023-02-21T07:24:01;100008.56;;;9.35;100.00
16194;BME280;8204;53.582;10.080;2023-02-21T07:26:32;100059.22;;;9.34;100.00
16194;BME280;8204;53.582;10.080;2023-02-21T07:29:02;100067.69;;;9.36;100.00
16194;BME280;8204;53.582;10.080;2023-02-21T07:31:31;100041.03;;;9.41;100.00
16194;BME280;8204;53.582;10.080;2023-02-21T07:34:00;100065.22;;;9.43;100.00
16194;BME280;8204;53.582;10.080;2023-02-21T07:36:28;100088.94;;;9.41;100.00
16194;BME280;8204;53.582;10.080;2023-02-21T07:38:57;100099.22;;;9.43;100.00
16194;BME280;8204;53.582;10.080;2023-02-21T07:41:26;100094.78;;;9.43;100.00
16194;BME280;8204;53.582;10.080;2023-02-21T07:43:57;100104.59;;;9.49;100.00
16194;BME280;8204;53.582;10.080;2023-02-21T07:46:27;100108.69;;;9.51;100.00
16194;BME280;8204;53.582;10.080;2023-02-21T07:48:56;100111.63;;;9.56;100.00
16194;BME280;8204;53.582;10.080;2023-02-21T07:51:26;100117.47;;;9.58;100.00
16194;BME280;8204;53.582;10.080;2023-02-21T07:53:56;100120.25;;;9.65;100.00
16194;BME280;8204;53.582;10.080;2023-02-21T07:56:24;100160.94;;;9.59;100.00
16194;BME280;8204;53.582;10.080;2023-02-21T07:58:56;100165.56;;;9.57;100.00
16194;BME280;8204;53.582;10.080;2023-02-21T08:01:26;100159.50;;;9.57;100.00
16194;BME280;8204;53.582;10.080;2023-02-21T08:03:55;100128.75;;;9.59;100.00
16194;BME280;8204;53.582;10.080;2023-02-21T08:06:24;100135.13;;;9.64;100.00
16194;BME280;8204;53.582;10.080;2023-02-21T08:08:52;100161.44;;;9.63;100.00
16194;BME280;8204;53.582;10.080;2023-02-21T08:11:21;100192.19;;;9.61;100.00
16194;BME280;8204;53.582;10.080;2023-02-21T08:13:50;100209.53;;;9.54;100.00
16194;BME280;8204;53.582;10.080;2023-02-21T08:16:22;100211.47;;;9.60;100.00
16194;BME280;8204;53.582;10.080;2023-02-21T08:18:53;100181.19;;;9.73;100.00
16194;BME280;8204;53.582;10.080;2023-02-21T08:21:21;100174.34;;;9.72;100.00
16194;BME280;8204;53.582;10.080;2023-02-21T15:55:30;100735.50;;;11.25;100.00
16194;BME280;8204;53.582;10.080;2023-02-21T15:58:00;100739.09;;;11.24;100.00
16194;BME280;8204;53.582;10.080;2023-02-21T16:00:31;100760.25;;;11.15;100.00
16194;BME280;8204;53.582;10.080;2023-02-21T16:03:25;100735.97;;;11.05;100.00
16194;BME280;8204;53.582;10.080;2023-02-21T16:06:13;100731.53;;;11.05;100.00
16194;BME280;8204;53.582;10.080;2023-02-21T16:09:17;100745.97;;;11.01;100.00
16194;BME280;8204;53.582;10.080;2023-02-21T16:11:53;100732.97;;;10.92;100.00
16194;BME280;8204;53.582;10.080;2023-02-21T16:14:34;100710.38;;;10.91;100.00
16194;BME280;8204;53.582;10.080;2023-02-21T16:17:19;100710.56;;;10.97;100.00
16194;BME280;8204;53.582;10.080;2023-02-21T16:19:51;100729.06;;;10.96;100.00
16194;BME280;8204;53.582;10.080;2023-02-21T16:22:29;100721.69;;;10.91;100.00
16194;BME280;8204;53.582;10.080;2023-02-21T16:25:14;100708.28;;;10.94;100.00
16194;BME280;8204;53.582;10.080;2023-02-21T16:27:48;100707.09;;;10.89;100.00
16194;BME280;8204;53.582;10.080;2023-02-21T16:30:19;100696.13;;;10.86;100.00
16194;BME280;8204;53.582;10.080;2023-02-21T16:32:51;100674.16;;;10.79;100.00
16194;BME280;8204;53.582;10.080;2023-02-21T16:35:23;100666.63;;;10.76;100.00
16194;BME280;8204;53.582;10.080;2023-02-21T16:37:54;100648.25;;;10.84;100.00
16194;BME280;8204;53.582;10.080;2023-02-21T16:40:24;100633.72;;;10.89;100.00
16194;BME280;8204;53.582;10.080;2023-02-21T16:42:57;100640.75;;;10.81;100.00
16194;BME280;8204;53.582;10.080;2023-02-21T16:45:27;100617.16;;;10.81;100.00
16194;BME280;8204;53.582;10.080;2023-02-21T16:47:58;100620.44;;;10.75;100.00
16194;BME280;8204;53.582;10.080;2023-02-21T16:50:30;100608.13;;;10.75;100.00
16194;BME280;8204;53.582;10.080;2023-02-21T16:53:00;100613.84;;;10.71;100.00
16194;BME280;8204;53.582;10.080;2023-02-21T16:55:30;100602.91;;;10.75;100.00
16194;BME280;8204;53.582;10.080;2023-02-21T16:58:03;100611.59;;;10.76;100.00
16194;BME280;8204;53.582;10.080;2023-02-21T17:00:33;100607.31;;;10.83;100.00
16194;BME280;8204;53.582;10.080;2023-02-21T17:03:02;100603.22;;;10.80;100.00
16194;BME280;8204;53.582;10.080;2023-02-21T17:05:31;100611.94;;;10.89;100.00
16194;BME280;8204;53.582;10.080;2023-02-21T17:08:01;100615.16;;;10.83;100.00
16194;BME280;8204;53.582;10.080;2023-02-21T17:10:30;100619.13;;;10.87;100.00
16194;BME280;8204;53.582;10.080;2023-02-21T17:13:02;100633.88;;;10.88;100.00
16194;BME280;8204;53.582;10.080;2023-02-21T17:15:30;100627.47;;;10.82;100.00
16194;BME280;8204;53.582;10.080;2023-02-21T17:17:59;100641.72;;;10.80;100.00
16194;BME280;8204;53.582;10.080;2023-02-21T17:20:29;100619.44;;;10.84;100.00
16194;BME280;8204;53.582;10.080;2023-02-21T17:22:58;100624.53;;;10.85;100.00
16194;BME280;8204;53.582;10.080;2023-02-21T17:25:28;100611.94;;;10.89;100.00
16194;BME280;8204;53.582;10.080;2023-02-21T17:28:02;100619.44;;;10.91;100.00
16194;BME280;8204;53.582;10.080;2023-02-21T17:30:31;100644.84;;;10.83;100.00
16194;BME280;8204;53.582;10.080;2023-02-21T17:32:59;100624.34;;;10.71;100.00
16194;BME280;8204;53.582;10.080;2023-02-21T17:35:30;100608.63;;;10.71;100.00
16194;BME280;8204;53.582;10.080;2023-02-21T17:37:58;100597.31;;;10.70;100.00
16194;BME280;8204;53.582;10.080;2023-02-21T17:40:28;100592.75;;;10.72;100.00
16194;BME280;8204;53.582;10.080;2023-02-21T17:42:58;100592.91;;;10.71;100.00
16194;BME280;8204;53.582;10.080;2023-02-21T17:45:30;100571.94;;;10.71;100.00
16194;BME280;8204;53.582;10.080;2023-02-21T17:48:01;100578.00;;;10.71;100.00
16194;BME280;8204;53.582;10.080;2023-02-21T17:50:30;100563.75;;;10.74;100.00
16194;BME280;8204;53.582;10.080;2023-02-21T17:53:00;100574.06;;;10.75;100.00
16194;BME280;8204;53.582;10.080;2023-02-21T17:55:29;100574.56;;;10.79;100.00
16194;BME280;8204;53.582;10.080;2023-02-21T17:57:58;100577.34;;;10.77;100.00
16194;BME280;8204;53.582;10.080;2023-02-21T18:00:29;100572.28;;;10.76;100.00
16194;BME280;8204;53.582;10.080;2023-02-21T18:03:00;100567.53;;;10.71;100.00
16194;BME280;8204;53.582;10.080;2023-02-21T18:05:31;100564.72;;;10.73;100.00
16194;BME280;8204;53.582;10.080;2023-02-21T18:08:03;100548.53;;;10.77;100.00
16194;BME280;8204;53.582;10.080;2023-02-21T18:10:31;100533.28;;;10.81;100.00
16194;BME280;8204;53.582;10.080;2023-02-21T18:13:00;100533.13;;;10.82;100.00
16194;BME280;8204;53.582;10.080;2023-02-21T18:15:31;100526.41;;;10.72;100.00
16194;BME280;8204;53.582;10.080;2023-02-21T18:18:00;100500.53;;;10.69;100.00
16194;BME280;8204;53.582;10.080;2023-02-21T18:20:30;100478.91;;;10.67;100.00
16194;BME280;8204;53.582;10.080;2023-02-21T18:22:59;100463.84;;;10.69;100.00
16194;BME280;8204;53.582;10.080;2023-02-21T18:25:31;100461.38;;;10.67;100.00
16194;BME280;8204;53.582;10.080;2023-02-21T18:28:00;100448.13;;;10.69;100.00
16194;BME280;8204;53.582;10.080;2023-02-21T18:30:32;100449.25;;;10.74;100.00
16194;BME280;8204;53.582;10.080;2023-02-21T18:33:01;100472.34;;;10.71;100.00
16194;BME280;8204;53.582;10.080;2023-02-21T18:35:29;100457.13;;;10.74;100.00
16194;BME280;8204;53.582;10.080;2023-02-21T18:37:58;100457.28;;;10.73;100.00
16194;BME280;8204;53.582;10.080;2023-02-21T18:40:27;100472.03;;;10.74;100.00
16194;BME280;8204;53.582;10.080;2023-02-21T18:43:16;100467.09;;;10.71;100.00
